Latest Coastal Weather Observations for Robe Airport

IDS60701

Issued at 2:21 pm CST Sunday 28 May 2017 (issued every 10 minutes, with the page automatically refreshed every 10 minutes)

About coastal observations | Map of coastal stations | Coastal observations for SA | Marine services | Other Formats
Station Details ID: 026105 Name: ROBE AIRFIELD Lat: -37.18 Lon: 139.81 Height: 3.0 m
Data from the previous 72 hours. | See also: Recent months at Robe Airport
Date/Time
CST
Temp
°C
Wind Pressure Rain since
9am
mm
Weather Cloud Vis
km
Sea
Height
m
Swell
Dir  Spd
kts
Gust
kts
hPa Trend Height
m
Period
s
Dir
28/02:00pm 12.9 SW 14 23 1011.9 - 0.0 - - - - - - -
28/01:30pm 13.9 SW 14 24 1011.5 - 0.0 - - - - - - -
28/01:00pm 12.3 SW 14 24 1011.5 - 0.0 - - - - - - -
28/12:30pm 12.9 SW 13 21 1011.4 - 0.0 - - - - - - -
28/12:00pm 12.3 SW 12 22 1011.3 - 0.0 - - - - - - -
28/11:30am 13.7 WSW 12 20 1011.4 - 0.0 - - - - - - -
28/11:00am 12.9 SW 13 21 1011.4 - 0.0 - - - - - - -
28/10:45am 12.3 SW 15 25 1011.4 - 0.0 - - - - - - -
28/10:30am 12.2 SW 12 19 1011.3 - 0.0 - - - - - - -
28/10:00am 11.7 WSW 11 19 1011.2 - 0.0 - - - - - - -
28/09:30am 11.5 W 11 21 1010.9 - 0.0 - - - - - - -
28/09:00am 12.2 WSW 12 19 1010.5 - 5.4 - - - - - - -
28/08:30am 11.6 SW 14 21 1010.2 - 5.4 - - - - - - -
28/08:00am 12.3 WSW 12 21 1009.8 - 5.4 - - - - - - -
28/07:30am 11.4 WSW 9 16 1009.7 - 5.4 - - - - - - -
28/07:00am 11.4 W 10 18 1009.4 - 5.4 - - - - - - -
28/06:30am 12.0 W 13 22 1009.2 - 5.4 - - - - - - -
28/06:00am 12.2 WSW 11 17 1009.1 - 5.4 - - - - - - -
28/05:30am 12.4 WSW 10 17 1009.1 - 5.4 - - - - - - -
28/05:00am 11.7 WSW 7 13 1009.0 - 5.4 - - - - - - -
28/04:30am 11.2 SW 7 12 1008.9 - 5.4 - - - - - - -
28/04:00am 12.1 WSW 8 15 1008.9 - 5.4 - - - - - - -
28/03:30am 11.4 SW 11 17 1009.0 - 5.4 - - - - - - -
28/03:00am 11.6 SW 7 12 1009.1 - 5.4 - - - - - - -
28/02:30am 11.8 WSW 10 16 1009.1 - 5.4 - - - - - - -
28/02:00am 11.3 WSW 9 16 1009.0 - 5.4 - - - - - - -
28/01:30am 11.9 W 7 14 1009.0 - 5.0 - - - - - - -
28/01:00am 11.5 WSW 8 16 1009.1 - 5.0 - - - - - - -
28/12:30am 12.2 W 8 15 1009.1 - 5.0 - - - - - - -
28/12:00am 11.6 W 7 11 1009.4 - 5.0 - - - - - - -
 
Date/Time
CST
Temp
°C
Wind Pressure Rain since
9am
mm
Weather Cloud Vis
km
Sea
Height
m
Swell
Dir  Spd
kts
Gust
kts
hPa Trend Height
m
Period
s
Dir
27/11:30pm 10.9 W 6 10 1009.4 - 5.0 - - - - - - -
27/11:00pm 12.0 WSW 7 11 1009.4 - 5.0 - - - - - - -
27/10:30pm 12.0 WSW 8 14 1009.5 - 5.0 - - - - - - -
27/10:00pm 11.7 WSW 7 13 1009.6 - 5.0 - - - - - - -
27/09:30pm 12.1 WSW 8 14 1009.5 - 5.0 - - - - - - -
27/09:00pm 11.3 SW 11 18 1009.5 - 5.0 Recent precip. - - - - - -
27/08:30pm 12.3 WSW 8 13 1009.1 - 4.8 - - - - - - -
27/08:00pm 13.0 WSW 7 18 1009.3 - 4.6 - - - - - - -
27/07:30pm 12.8 W 6 10 1008.9 - 4.4 - - - - - - -
27/07:00pm 12.5 WSW 6 9 1008.7 - 4.4 - - - - - - -
27/06:30pm 12.3 WSW 7 13 1008.2 - 4.4 - - - - - - -
27/06:00pm 12.2 SW 11 18 1008.1 - 4.4 Recent precip. - - - - - -
27/05:30pm 12.9 W 10 17 1008.0 - 4.4 - - - - - - -
27/05:00pm 13.8 NW 6 8 1007.4 - 3.8 - - - - - - -
27/04:30pm 13.4 WNW 7 11 1007.8 - 3.8 - - - - - - -
27/04:00pm 13.3 WNW 8 11 1007.9 - 3.6 - - - - - - -
27/03:30pm 13.7 WNW 15 23 1008.1 - 1.4 - - - - - - -
27/03:00pm 14.3 WNW 12 19 1007.2 - 0.2 Recent precip. - - - - - -
27/02:30pm 14.9 WNW 15 23 1007.7 - 0.0 - - - - - - -
27/02:00pm 16.8 NNW 13 17 1007.8 - 0.0 - - - - - - -
27/01:30pm 17.0 NNW 14 18 1008.1 - 0.0 - - - - - - -
27/01:00pm 18.2 NNW 15 21 1008.2 - 0.0 - - - - - - -
27/12:30pm 17.7 NNW 17 23 1008.7 - 0.0 - - - - - - -
27/12:00pm 17.7 NNW 19 26 1009.3 - 0.0 - - - - - - -
27/11:30am 17.2 N 18 27 1009.8 - 0.0 - - - - - - -
27/11:24am 17.5 N 17 27 1009.9 - 0.0 - - - - - - -
27/11:00am 17.0 N 16 23 1010.3 - 0.0 - - - - - - -
27/10:30am 15.2 N 16 21 1010.8 - 0.0 - - - - - - -
27/10:00am 15.3 N 16 21 1011.2 - 0.0 - - - - - - -
27/09:30am 14.4 N 11 16 1011.3 - 0.0 - - - - - - -
27/09:00am 12.8 N 11 14 1011.6 - 0.0 - - - - - - -
27/08:30am 12.3 N 12 15 1011.7 - 0.0 - - - - - - -
27/08:00am 12.0 N 11 15 1011.8 - 0.0 - - - - - - -
27/07:30am 12.3 N 11 15 1011.8 - 0.0 - - - - - - -
27/07:00am 13.2 N 12 15 1012.1 - 0.0 - - - - - - -
27/06:30am 14.0 N 12 18 1012.2 - 0.0 - - - - - - -
27/06:00am 13.8 N 13 17 1012.3 - 0.0 - - - - - - -
27/05:30am 13.6 N 11 16 1012.5 - 0.0 - - - - - - -
27/05:00am 13.0 N 11 15 1012.6 - 0.0 - - - - - - -
27/04:30am 12.9 N 12 17 1012.7 - 0.0 - - - - - - -
27/04:00am 12.0 N 8 11 1012.9 - 0.0 - - - - - - -
27/03:30am 11.7 N 9 13 1013.2 - 0.0 - - - - - - -
27/03:00am 11.7 N 8 10 1013.5 - 0.0 - - - - - - -
27/02:30am 11.4 N 9 10 1013.7 - 0.0 - - - - - - -
27/02:00am 12.0 N 11 14 1013.8 - 0.0 - - - - - - -
27/01:30am 11.9 N 10 12 1014.1 - 0.0 - - - - - - -
27/01:00am 11.7 N 9 14 1014.4 - 0.0 - - - - - - -
27/12:30am 11.9 N 9 12 1014.7 - 0.0 - - - - - - -
27/12:00am 12.1 N 10 13 1014.9 - 0.0 - - - - - - -
 
Date/Time
CST
Temp
°C
Wind Pressure Rain since
9am
mm
Weather Cloud Vis
km
Sea
Height
m
Swell
Dir  Spd
kts
Gust
kts
hPa Trend Height
m
Period
s
Dir
26/11:30pm 12.3 N 11 14 1015.1 - 0.0 - - - - - - -
26/11:00pm 12.1 N 9 13 1015.5 - 0.0 - - - - - - -
26/10:30pm 11.9 NNE 8 11 1015.7 - 0.0 - - - - - - -
26/10:00pm 11.4 NNE 8 10 1016.0 - 0.0 - - - - - - -
26/09:30pm 11.2 NNE 7 9 1016.3 - 0.0 - - - - - - -
26/09:00pm 11.3 NNE 7 9 1016.5 - 0.0 - - - - - - -
26/08:30pm 10.9 NNE 6 7 1016.7 - 0.0 - - - - - - -
26/08:00pm 11.3 NNE 7 8 1016.9 - 0.0 - - - - - - -
26/07:30pm 11.4 NNE 7 9 1017.0 - 0.0 - - - - - - -
26/07:00pm 11.3 N 6 6 1017.3 - 0.0 - - - - - - -
26/06:30pm 11.6 N 6 7 1017.3 - 0.0 - - - - - - -
26/06:00pm 12.1 N 6 8 1017.3 - 0.0 - - - - - - -
26/05:30pm 12.6 N 6 7 1017.2 - 0.0 - - - - - - -
26/05:00pm 14.1 N 7 9 1017.4 - 0.0 - - - - - - -
26/04:30pm 15.4 N 8 11 1017.6 - 0.0 - - - - - - -
26/04:00pm 15.9 N 8 11 1017.6 - 0.0 - - - - - - -
26/03:30pm 16.0 N 10 13 1017.8 - 0.0 - - - - - - -
26/03:00pm 16.4 N 12 17 1018.0 - 0.0 - - - - - - -
26/02:30pm 16.8 N 12 16 1018.2 - 0.0 - - - - - - -
26/02:00pm 17.1 NNW 11 15 1018.5 - 0.0 - - - - - - -
26/01:30pm 16.1 N 8 11 1018.7 - 0.0 - - - - - - -
26/01:00pm 15.5 N 8 10 1019.1 - 0.0 - - - - - - -
26/12:30pm 15.5 NNE 8 11 1019.6 - 0.0 - - - - - - -
26/12:00pm 15.4 NE 8 11 1020.1 - 0.0 - - - - - - -
26/11:30am 15.9 NNE 8 10 1020.8 - 0.0 - - - - - - -
26/11:00am 14.8 NE 7 9 1021.4 - 0.0 - - - - - - -
26/10:30am 14.5 N 7 10 1021.8 - 0.0 - - - - - - -
26/10:00am 14.3 NNE 7 10 1022.1 - 0.0 - - - - - - -
26/09:30am 13.2 NE 5 7 1022.1 - 0.0 - - - - - - -
26/09:00am 12.2 NE 5 7 1022.3 - 5.8 - - - - - - -
26/08:30am 9.8 NNE 2 3 1022.4 - 5.8 - - - - - - -
26/08:00am 8.9 NNE 1 2 1022.2 - 5.8 - - - - - - -
26/07:30am 8.7 NNE 1 1 1022.1 - 5.8 - - - - - - -
26/07:00am 8.3 NNE 1 2 1022.0 - 5.8 - - - - - - -
26/06:30am 7.6 N 2 3 1021.8 - 5.8 - - - - - - -
26/06:00am 6.9 SE 2 6 1021.7 - 5.8 - - - - - - -
26/05:30am 7.7 CALM 0 0 1021.4 - 5.8 - - - - - - -
26/05:00am 7.6 CALM 0 0 1021.3 - 5.8 - - - - - - -
26/04:30am 7.4 CALM 0 0 1021.1 - 5.8 - - - - - - -
26/04:00am 6.7 CALM 0 0 1021.1 - 5.8 - - - - - - -
26/03:30am 7.0 CALM 0 0 1021.2 - 5.8 - - - - - - -
26/03:00am 7.1 CALM 0 0 1021.1 - 5.8 - - - - - - -
26/02:30am 7.1 CALM 0 0 1021.1 - 5.8 - - - - - - -
26/02:00am 7.8 CALM 0 0 1021.2 - 5.8 - - - - - - -
26/01:30am 8.8 S 1 1 1021.2 - 5.8 - - - - - - -
26/01:00am 9.2 S 2 2 1021.3 - 5.8 - - - - - - -
26/12:30am 8.8 CALM 0 0 1021.3 - 5.8 - - - - - - -
26/12:00am 9.1 CALM 0 0 1021.3 - 5.8 - - - - - - -
 
Date/Time
CST
Temp
°C
Wind Pressure Rain since
9am
mm
Weather Cloud Vis
km
Sea
Height
m
Swell
Dir  Spd
kts
Gust
kts
hPa Trend Height
m
Period
s
Dir
25/11:30pm 9.3 CALM 0 0 1021.4 - 5.8 - - - - - - -
25/11:00pm 10.3 CALM 0 0 1021.3 - 5.8 - - - - - - -
25/10:30pm 10.7 CALM 0 0 1021.3 - 5.8 - - - - - - -
25/10:00pm 10.7 CALM 0 0 1021.3 - 5.8 - - - - - - -
25/09:30pm 10.4 CALM 0 0 1021.1 - 5.8 - - - - - - -
25/09:00pm 11.1 CALM 0 0 1020.9 - 5.8 - - - - - - -
25/08:30pm 12.1 SSW 3 3 1020.6 - 5.8 - - - - - - -
25/08:00pm 13.1 S 6 9 1020.4 - 5.8 - - - - - - -
25/07:30pm 13.8 S 7 9 1020.3 - 5.8 - - - - - - -
25/07:00pm 13.8 SSW 7 13 1020.1 - 5.8 - - - - - - -
25/06:30pm 14.3 SW 8 12 1019.7 - 5.8 - - - - - - -
25/06:00pm 14.9 SW 8 12 1019.2 - 5.8 Recent precip. - - - - - -
25/05:30pm 15.6 WNW 7 12 1018.7 - 5.8 - - - - - - -
25/05:00pm 15.6 WNW 6 9 1018.5 - 5.6 - - - - - - -
25/04:30pm 15.8 WNW 7 10 1018.4 - 5.6 - - - - - - -
25/04:00pm 16.0 WNW 10 15 1018.4 - 5.6 - - - - - - -
25/03:30pm 16.2 NW 11 14 1018.2 - 5.6 - - - - - - -
25/03:00pm 15.9 WNW 9 13 1018.1 - 5.6 Recent precip. - - - - - -
25/02:30pm 14.8 W 8 15 1018.2 - 5.6 - - - - - - -

Other Formats:

Comma delimited format used in spreadsheet applications
http://www.bom.gov.au/fwo/IDS60701/IDS60701.95816.axf

JavaScript Object Notation format (JSON) in row-major order
http://www.bom.gov.au/fwo/IDS60701/IDS60701.95816.json